Time;durP1;ratioP1;P1;durP2;ratioP2;P2;SDS_P1;SDS_P2;PMS_P1;PMS_P2;Temp;Humidity;BMP_temperature;BMP_pressure;BME280_temperature;BME280_humidity;BME280_pressure;Samples;Min_cycle;Max_cycle;Signal;HPM_P1;HPM_P2
2022/10/14 00:01:26;;;;;;;35.37;27.50;;;13.80;99.90;;;;;;5032905;28;20737;-55
2022/10/14 00:03:55;;;;;;;33.50;27.33;;;13.80;99.90;;;;;;5033615;28;20228;-57
2022/10/14 00:06:50;;;;;;;37.77;29.33;;;13.80;99.90;;;;;;5031429;28;20371;-57
2022/10/14 00:09:19;;;;;;;35.10;28.07;;;13.70;99.90;;;;;;5024811;28;20311;-57
2022/10/14 00:11:48;;;;;;;35.60;29.47;;;13.70;99.90;;;;;;5033347;28;20767;-57
2022/10/14 00:14:20;;;;;;;36.27;28.60;;;13.80;99.90;;;;;;5032830;28;20259;-56
2022/10/14 00:16:53;;;;;;;31.13;26.67;;;13.80;99.90;;;;;;5015601;28;20235;-57
2022/10/14 00:19:22;;;;;;;33.97;27.70;;;13.80;99.90;;;;;;5013203;28;20225;-54
2022/10/14 00:21:50;;;;;;;32.83;29.23;;;13.90;99.90;;;;;;5012804;28;20227;-55
2022/10/14 00:24:18;;;;;;;35.90;28.57;;;13.80;99.90;;;;;;5013123;28;20233;-54
2022/10/14 00:26:47;;;;;;;41.20;31.60;;;13.70;99.90;;;;;;5020929;28;20263;-54
2022/10/14 00:29:18;;;;;;;34.13;28.20;;;13.70;99.90;;;;;;5025515;28;20232;-55
2022/10/14 00:31:47;;;;;;;41.13;30.57;;;13.80;99.90;;;;;;5031191;28;20271;-56
2022/10/14 00:34:16;;;;;;;38.97;30.60;;;13.90;99.90;;;;;;5032807;28;20227;-56
2022/10/14 00:36:44;;;;;;;33.40;27.43;;;13.80;99.90;;;;;;5032097;28;20580;-56
2022/10/14 00:39:19;;;;;;;34.30;27.97;;;13.80;99.90;;;;;;5024313;28;20215;-56
2022/10/14 00:41:47;;;;;;;38.07;31.90;;;13.90;99.90;;;;;;5032829;28;20638;-56
2022/10/14 00:44:53;;;;;;;34.70;29.40;;;13.90;99.90;;;;;;5031489;28;20236;-56
2022/10/14 00:47:23;;;;;;;36.07;30.00;;;13.80;99.90;;;;;;4998815;28;20584;-56
2022/10/14 00:49:52;;;;;;;33.00;28.23;;;13.80;99.90;;;;;;5011643;28;20312;-56
2022/10/14 00:52:23;;;;;;;35.90;29.40;;;13.70;99.90;;;;;;5050680;28;20221;-57
2022/10/14 00:54:56;;;;;;;41.47;33.23;;;13.70;99.90;;;;;;5012720;28;20231;-56
2022/10/14 00:57:26;;;;;;;36.07;29.20;;;13.60;99.90;;;;;;5020749;28;20269;-56
2022/10/14 01:00:00;;;;;;;37.33;29.70;;;13.80;99.90;;;;;;5030739;28;20694;-57
2022/10/14 01:02:30;;;;;;;40.03;30.30;;;13.70;99.90;;;;;;5031932;28;20235;-56
2022/10/14 01:04:59;;;;;;;35.93;28.10;;;13.70;99.90;;;;;;5031268;28;20266;-56
2022/10/14 01:07:36;;;;;;;40.07;32.70;;;13.70;99.90;;;;;;5031508;28;20580;-55
2022/10/14 01:10:12;;;;;;;35.60;29.50;;;13.60;99.90;;;;;;5021209;28;20728;-56
2022/10/14 01:12:55;;;;;;;41.60;32.73;;;13.60;99.90;;;;;;5032327;28;20278;-57
2022/10/14 01:15:34;;;;;;;39.97;30.23;;;13.60;99.90;;;;;;5021196;28;20248;-57
2022/10/14 01:18:24;;;;;;;40.63;32.23;;;13.60;99.90;;;;;;5013280;28;20244;-57
2022/10/14 01:21:11;;;;;;;40.40;30.57;;;13.50;99.90;;;;;;5016571;28;20233;-56
2022/10/14 01:24:08;;;;;;;37.03;31.77;;;13.50;99.90;;;;;;5012751;28;20259;-56
2022/10/14 01:27:15;;;;;;;36.80;29.70;;;13.40;99.90;;;;;;5011246;28;20718;-56
2022/10/14 01:30:21;;;;;;;37.27;29.20;;;13.60;99.90;;;;;;4996401;28;20644;-56
2022/10/14 01:33:01;;;;;;;39.50;31.67;;;13.60;99.90;;;;;;4996613;28;20238;-56
2022/10/14 01:35:56;;;;;;;36.73;30.60;;;13.60;99.90;;;;;;5007848;28;20239;-56
2022/10/14 01:38:29;;;;;;;41.27;33.30;;;13.60;99.90;;;;;;5024236;28;20231;-55
2022/10/14 01:41:06;;;;;;;37.07;31.50;;;13.60;99.90;;;;;;5033402;28;20239;-56
2022/10/14 01:43:37;;;;;;;39.60;32.50;;;13.70;99.90;;;;;;5036030;28;20241;-56
2022/10/14 01:46:07;;;;;;;39.90;31.60;;;13.70;99.90;;;;;;5036102;28;20758;-56
2022/10/14 01:48:44;;;;;;;37.07;31.10;;;13.60;99.90;;;;;;5035953;28;20730;-56
2022/10/14 01:51:18;;;;;;;40.13;30.63;;;13.60;99.90;;;;;;5034474;28;20245;-55
2022/10/14 01:53:53;;;;;;;41.50;32.13;;;13.70;99.90;;;;;;5017545;28;20257;-56
2022/10/14 01:56:26;;;;;;;42.57;34.17;;;13.80;99.90;;;;;;5019890;28;20258;-56
2022/10/14 01:58:56;;;;;;;39.30;32.30;;;13.80;99.90;;;;;;5026056;28;20236;-57
2022/10/14 02:01:26;;;;;;;37.43;31.53;;;13.70;99.90;;;;;;5035047;28;20322;-55
2022/10/14 02:03:54;;;;;;;42.77;32.90;;;13.90;99.90;;;;;;5035824;28;20350;-56
2022/10/14 02:06:30;;;;;;;42.00;33.40;;;13.80;99.90;;;;;;5035377;28;20282;-56
2022/10/14 02:09:16;;;;;;;41.73;33.67;;;13.70;99.90;;;;;;5024991;28;20759;-56
2022/10/14 02:11:54;;;;;;;39.27;31.60;;;13.80;99.90;;;;;;5013656;28;20312;-56
2022/10/14 02:14:33;;;;;;;40.90;32.73;;;13.70;99.90;;;;;;5013941;28;20229;-56
2022/10/14 02:17:06;;;;;;;40.33;31.77;;;13.80;99.90;;;;;;5015401;28;20228;-56
2022/10/14 02:19:42;;;;;;;41.97;35.40;;;13.90;99.90;;;;;;5013089;28;20236;-55
2022/10/14 02:22:20;;;;;;;41.93;35.30;;;13.70;99.90;;;;;;5020979;28;20233;-56
2022/10/14 02:24:54;;;;;;;40.17;32.27;;;13.60;99.90;;;;;;5015176;28;20225;-56
2022/10/14 02:27:26;;;;;;;44.80;33.43;;;13.70;99.90;;;;;;5023565;28;20244;-57
2022/10/14 02:29:56;;;;;;;44.13;37.17;;;13.80;99.90;;;;;;5030965;28;20271;-56
2022/10/14 02:32:28;;;;;;;41.80;34.03;;;13.60;99.90;;;;;;5034463;28;20769;-55
2022/10/14 02:34:59;;;;;;;49.93;38.93;;;13.50;99.90;;;;;;5017493;28;20274;-54
2022/10/14 02:37:29;;;;;;;45.67;36.67;;;13.50;99.90;;;;;;5029225;28;20271;-55
2022/10/14 02:40:05;;;;;;;45.13;36.43;;;13.50;99.90;;;;;;5023353;28;20297;-55
2022/10/14 02:42:33;;;;;;;44.47;34.73;;;13.60;99.90;;;;;;5014903;28;20235;-54
2022/10/14 02:45:05;;;;;;;39.77;31.50;;;13.70;99.90;;;;;;5013799;28;20712;-54
2022/10/14 02:47:35;;;;;;;47.40;37.40;;;13.70;99.90;;;;;;5014773;28;20236;-55
2022/10/14 02:50:04;;;;;;;43.53;34.67;;;13.80;99.90;;;;;;5015268;28;20591;-54
2022/10/14 02:52:32;;;;;;;41.20;32.40;;;13.80;99.90;;;;;;5013329;28;20308;-54
2022/10/14 02:55:01;;;;;;;47.17;36.73;;;13.80;99.90;;;;;;5014697;28;20264;-54
2022/10/14 02:57:29;;;;;;;40.30;32.57;;;13.80;99.90;;;;;;5021389;28;20549;-55
2022/10/14 02:59:57;;;;;;;43.37;34.97;;;13.80;99.90;;;;;;5032913;28;20692;-55
2022/10/14 03:02:26;;;;;;;44.07;36.97;;;13.80;99.90;;;;;;5029536;28;20235;-52
2022/10/14 03:04:56;;;;;;;42.67;33.47;;;13.70;99.90;;;;;;5034821;28;20227;-54
2022/10/14 03:07:25;;;;;;;45.27;35.03;;;13.80;99.90;;;;;;5028142;28;20247;-53
2022/10/14 03:09:57;;;;;;;45.90;35.67;;;13.80;99.90;;;;;;5054408;28;20232;-54
2022/10/14 03:12:26;;;;;;;49.07;36.63;;;13.60;99.90;;;;;;5014397;28;20217;-55
2022/10/14 03:14:56;;;;;;;42.30;34.73;;;13.60;99.90;;;;;;5013060;28;20280;-56
2022/10/14 03:17:26;;;;;;;50.87;38.50;;;13.60;99.90;;;;;;5013012;28;20276;-55
2022/10/14 03:20:00;;;;;;;48.87;37.00;;;13.50;99.90;;;;;;5013566;28;20239;-56
2022/10/14 03:22:29;;;;;;;43.03;32.53;;;13.50;99.90;;;;;;5019557;28;20235;-56
2022/10/14 03:24:57;;;;;;;45.67;33.47;;;13.60;99.90;;;;;;5012948;28;20217;-56
2022/10/14 03:27:36;;;;;;;47.93;36.13;;;13.60;99.90;;;;;;5020745;28;20275;-56
2022/10/14 03:30:09;;;;;;;46.83;34.00;;;13.50;99.90;;;;;;4994580;28;20578;-56
2022/10/14 03:32:46;;;;;;;51.67;36.57;;;13.50;99.90;;;;;;4992922;28;20579;-56
2022/10/14 03:35:45;;;;;;;46.50;35.33;;;13.50;99.90;;;;;;4983274;28;20229;-56
2022/10/14 03:38:17;;;;;;;46.47;36.07;;;13.40;99.90;;;;;;5010837;28;20263;-56
2022/10/14 03:40:46;;;;;;;47.67;33.97;;;13.40;99.90;;;;;;5031745;28;20243;-56
2022/10/14 03:43:15;;;;;;;48.53;35.63;;;13.50;99.90;;;;;;5032371;28;20321;-56
2022/10/14 03:45:51;;;;;;;46.73;34.00;;;13.50;99.90;;;;;;5031110;28;20410;-56
2022/10/14 03:48:22;;;;;;;55.27;38.00;;;13.50;99.90;;;;;;5031289;28;20235;-56
2022/10/14 03:50:51;;;;;;;45.80;34.70;;;13.50;99.90;;;;;;5033762;28;20231;-56
2022/10/14 03:53:20;;;;;;;50.23;36.10;;;13.60;99.90;;;;;;5019036;28;20233;-57
2022/10/14 03:55:50;;;;;;;49.30;37.53;;;13.60;99.90;;;;;;5013122;28;20277;-57
2022/10/14 03:58:18;;;;;;;49.33;34.63;;;13.50;99.90;;;;;;5023845;28;20256;-57
2022/10/14 04:00:50;;;;;;;49.80;36.20;;;13.60;99.90;;;;;;5031619;28;20251;-56
2022/10/14 04:03:39;;;;;;;53.03;36.20;;;13.40;99.90;;;;;;5026239;28;20228;-56
2022/10/14 04:06:09;;;;;;;52.03;35.90;;;13.50;99.90;;;;;;5013617;28;20265;-56
2022/10/14 04:08:37;;;;;;;52.53;36.97;;;13.40;99.90;;;;;;5019347;28;20588;-57
2022/10/14 04:11:21;;;;;;;53.60;38.23;;;13.40;99.90;;;;;;4992561;28;20234;-56
2022/10/14 04:13:51;;;;;;;50.73;35.80;;;13.40;99.90;;;;;;4992574;28;20229;-57
2022/10/14 04:16:20;;;;;;;55.13;35.63;;;13.40;99.90;;;;;;4993644;28;20246;-56
2022/10/14 04:19:01;;;;;;;57.33;39.43;;;13.40;99.90;;;;;;5011395;28;20313;-56
2022/10/14 04:21:32;;;;;;;59.33;40.27;;;13.40;99.90;;;;;;5011777;28;20589;-56
2022/10/14 04:24:00;;;;;;;57.63;39.73;;;13.50;99.90;;;;;;5011899;28;20332;-57
2022/10/14 04:26:42;;;;;;;59.57;36.07;;;13.50;99.90;;;;;;5019637;28;20323;-56
2022/10/14 04:29:17;;;;;;;58.37;39.33;;;13.50;99.90;;;;;;5017559;28;20227;-56
2022/10/14 04:32:11;;;;;;;50.90;38.13;;;13.50;99.90;;;;;;5030332;28;20236;-56
2022/10/14 04:34:39;;;;;;;52.13;37.20;;;13.30;99.90;;;;;;5012057;28;20221;-56
2022/10/14 04:37:10;;;;;;;48.07;32.13;;;13.40;99.90;;;;;;5011461;28;20235;-56
2022/10/14 04:40:05;;;;;;;49.77;32.83;;;13.50;99.90;;;;;;5012037;28;20240;-56
2022/10/14 04:42:38;;;;;;;49.63;35.60;;;13.70;99.90;;;;;;5010661;28;20223;-56
2022/10/14 04:45:15;;;;;;;51.27;34.93;;;13.70;99.90;;;;;;5012232;28;20232;-56
2022/10/14 04:47:50;;;;;;;49.53;34.87;;;13.60;99.90;;;;;;5010696;28;20224;-56
2022/10/14 04:50:21;;;;;;;46.87;33.27;;;13.60;99.90;;;;;;5011515;28;20232;-57
2022/10/14 04:53:10;;;;;;;48.00;34.00;;;13.60;99.90;;;;;;5018953;28;20581;-57
2022/10/14 04:55:53;;;;;;;49.63;33.53;;;13.50;99.90;;;;;;5011290;28;20319;-56
2022/10/14 04:58:21;;;;;;;44.77;33.50;;;13.50;99.90;;;;;;5011264;28;20229;-56
2022/10/14 05:00:54;;;;;;;42.50;32.00;;;13.50;99.90;;;;;;5015031;28;20595;-56
2022/10/14 05:03:32;;;;;;;41.83;31.50;;;13.60;99.90;;;;;;5025634;28;20311;-57
2022/10/14 05:06:00;;;;;;;43.70;30.33;;;13.50;99.90;;;;;;5016374;28;20235;-56
2022/10/14 05:08:30;;;;;;;43.77;31.37;;;13.50;99.90;;;;;;5016375;28;20255;-56
2022/10/14 05:11:01;;;;;;;46.80;33.20;;;13.70;99.90;;;;;;5012135;28;20229;-55
2022/10/14 05:13:42;;;;;;;43.97;31.60;;;13.70;99.90;;;;;;5011816;28;20224;-57
2022/10/14 05:16:10;;;;;;;41.63;31.97;;;13.60;99.90;;;;;;5015792;28;20344;-55
2022/10/14 05:18:39;;;;;;;41.37;29.00;;;13.40;99.90;;;;;;5018009;28;20232;-57
2022/10/14 05:21:10;;;;;;;43.30;30.73;;;13.60;99.90;;;;;;5016792;28;20276;-57
2022/10/14 05:23:50;;;;;;;43.97;31.07;;;13.80;99.90;;;;;;5017266;28;20684;-56
2022/10/14 05:26:19;;;;;;;45.43;32.00;;;13.80;99.90;;;;;;5038199;28;20247;-57
2022/10/14 05:28:48;;;;;;;42.77;32.13;;;13.90;99.90;;;;;;5015980;28;20233;-56
2022/10/14 05:31:17;;;;;;;43.37;30.63;;;13.90;99.90;;;;;;5022424;28;20228;-55
2022/10/14 05:33:53;;;;;;;44.03;30.93;;;13.70;99.90;;;;;;5031785;28;20232;-57
2022/10/14 05:36:21;;;;;;;42.10;30.93;;;13.70;99.90;;;;;;5011239;28;20228;-56
2022/10/14 05:38:54;;;;;;;43.47;33.17;;;13.50;99.90;;;;;;5011022;28;20229;-57
2022/10/14 05:41:25;;;;;;;43.10;32.70;;;13.40;99.90;;;;;;5016513;28;20230;-54
2022/10/14 05:43:54;;;;;;;47.03;34.43;;;13.40;99.90;;;;;;5017995;28;20278;-55
2022/10/14 05:46:23;;;;;;;57.03;38.37;;;13.40;99.90;;;;;;5021569;28;20239;-54
2022/10/14 05:48:55;;;;;;;54.63;36.50;;;13.50;99.90;;;;;;5018606;28;20228;-54
2022/10/14 05:51:25;;;;;;;58.93;38.73;;;13.40;99.90;;;;;;5014822;28;20233;-54
2022/10/14 05:54:01;;;;;;;56.63;39.57;;;13.40;99.90;;;;;;5012044;28;20231;-55
2022/10/14 05:56:33;;;;;;;59.43;40.97;;;13.40;99.90;;;;;;5017164;28;20254;-57
2022/10/14 05:59:02;;;;;;;58.77;39.70;;;13.30;99.90;;;;;;5014798;28;20921;-56
2022/10/14 06:01:30;;;;;;;62.23;43.17;;;13.30;99.90;;;;;;5012913;28;20229;-57
2022/10/14 06:03:58;;;;;;;67.50;42.33;;;13.30;99.90;;;;;;5016718;28;20225;-55
2022/10/14 06:06:27;;;;;;;65.63;41.50;;;13.40;99.90;;;;;;5021926;28;20304;-56
2022/10/14 06:08:56;;;;;;;68.73;43.43;;;13.30;99.90;;;;;;5015773;28;20264;-57
2022/10/14 06:11:26;;;;;;;67.00;43.80;;;13.30;99.90;;;;;;5016991;28;20267;-56
2022/10/14 06:13:54;;;;;;;70.23;44.00;;;13.40;99.90;;;;;;5015774;28;20695;-57
2022/10/14 06:16:23;;;;;;;65.53;44.07;;;13.40;99.90;;;;;;5022650;28;20669;-56
2022/10/14 06:18:51;;;;;;;73.30;43.33;;;13.40;99.90;;;;;;5015087;28;20217;-55
2022/10/14 06:21:22;;;;;;;76.50;48.10;;;13.40;99.90;;;;;;5017872;28;20786;-56
2022/10/14 06:23:50;;;;;;;72.87;47.43;;;13.40;99.90;;;;;;5017903;28;20719;-57
2022/10/14 06:26:18;;;;;;;77.37;46.03;;;13.30;99.90;;;;;;5015064;28;20236;-56
2022/10/14 06:28:47;;;;;;;78.77;47.80;;;13.40;99.90;;;;;;5023840;28;20228;-57
2022/10/14 06:31:16;;;;;;;78.47;47.90;;;13.40;99.90;;;;;;5015265;28;20237;-57
2022/10/14 06:33:44;;;;;;;79.80;47.87;;;13.40;99.90;;;;;;5023841;28;20608;-55
2022/10/14 06:36:13;;;;;;;81.07;47.47;;;13.30;99.90;;;;;;5019190;28;20240;-56
2022/10/14 06:38:41;;;;;;;83.20;46.93;;;13.30;99.90;;;;;;5017157;28;20279;-56
2022/10/14 06:41:10;;;;;;;81.50;48.77;;;13.40;99.90;;;;;;5016726;28;20244;-56
2022/10/14 06:43:40;;;;;;;86.87;49.50;;;13.30;99.90;;;;;;5020971;28;20634;-56
2022/10/14 06:46:11;;;;;;;82.60;48.70;;;13.30;99.90;;;;;;5008799;28;20224;-56
2022/10/14 06:48:40;;;;;;;85.50;50.27;;;13.30;99.90;;;;;;5031230;28;20749;-56
2022/10/14 06:51:10;;;;;;;89.80;51.40;;;13.30;99.90;;;;;;5014665;28;20229;-56
2022/10/14 06:53:39;;;;;;;86.10;46.87;;;13.30;99.90;;;;;;5018709;28;20214;-57
2022/10/14 06:56:10;;;;;;;84.33;50.80;;;13.40;99.90;;;;;;5014047;28;20232;-57
2022/10/14 06:58:38;;;;;;;89.90;52.07;;;13.30;99.90;;;;;;5018170;28;20232;-56
2022/10/14 07:01:08;;;;;;;89.23;52.60;;;13.30;99.90;;;;;;5014406;28;20233;-56
2022/10/14 07:03:38;;;;;;;84.17;49.00;;;13.30;99.90;;;;;;5013819;28;20229;-57
2022/10/14 07:06:07;;;;;;;83.67;49.97;;;13.40;99.90;;;;;;5014174;28;20557;-56
2022/10/14 07:08:36;;;;;;;82.93;51.13;;;13.40;99.90;;;;;;5017947;28;20627;-56
2022/10/14 07:11:04;;;;;;;78.73;50.63;;;13.40;99.90;;;;;;5014064;28;20229;-56
2022/10/14 07:13:34;;;;;;;81.20;48.23;;;13.40;99.90;;;;;;5014286;28;20228;-57
2022/10/14 07:16:02;;;;;;;87.13;52.17;;;13.40;99.90;;;;;;5013932;28;20782;-57
2022/10/14 07:18:30;;;;;;;79.17;49.10;;;13.40;99.90;;;;;;5008841;28;20267;-56
2022/10/14 07:21:03;;;;;;;76.83;50.13;;;13.40;99.90;;;;;;5013021;28;20240;-56
2022/10/14 07:23:31;;;;;;;80.63;49.73;;;13.50;99.90;;;;;;5014319;28;20239;-57
2022/10/14 07:26:00;;;;;;;76.17;48.33;;;13.50;99.90;;;;;;5016248;28;20580;-57
2022/10/14 07:28:28;;;;;;;73.97;47.83;;;13.50;99.90;;;;;;5019368;28;20228;-56
2022/10/14 07:30:58;;;;;;;71.60;47.47;;;13.50;99.90;;;;;;5013860;28;20323;-56
2022/10/14 07:33:26;;;;;;;74.90;48.97;;;13.40;99.90;;;;;;5014165;28;20252;-55
2022/10/14 07:35:55;;;;;;;74.67;46.97;;;13.50;99.90;;;;;;5014247;28;20224;-57
2022/10/14 07:38:24;;;;;;;73.77;47.00;;;13.50;99.90;;;;;;5014074;28;20232;-57
2022/10/14 07:41:00;;;;;;;70.73;45.07;;;13.50;99.90;;;;;;5013082;28;20232;-56
2022/10/14 07:43:29;;;;;;;62.03;44.43;;;13.50;99.90;;;;;;5018743;28;20235;-56
2022/10/14 07:46:01;;;;;;;66.50;47.53;;;13.50;99.90;;;;;;5015228;28;20220;-56
2022/10/14 07:48:30;;;;;;;67.27;46.00;;;13.50;99.90;;;;;;5013553;28;20245;-56
2022/10/14 07:51:18;;;;;;;70.43;44.77;;;13.50;99.90;;;;;;5007022;28;20628;-57
2022/10/14 07:53:48;;;;;;;66.60;43.50;;;13.50;99.90;;;;;;5013859;28;20230;-57
2022/10/14 07:56:17;;;;;;;68.73;46.60;;;13.60;99.90;;;;;;5013781;28;20699;-57
2022/10/14 07:58:45;;;;;;;59.43;42.40;;;13.60;99.90;;;;;;5012571;28;20229;-56
2022/10/14 08:01:14;;;;;;;63.33;44.83;;;13.70;99.90;;;;;;5015389;28;20240;-56
2022/10/14 08:03:44;;;;;;;66.47;45.43;;;13.70;99.90;;;;;;5013245;28;20228;-56
2022/10/14 08:06:12;;;;;;;68.63;46.20;;;13.70;99.90;;;;;;5016432;28;20228;-56
2022/10/14 08:08:42;;;;;;;68.70;44.40;;;13.80;99.90;;;;;;5012668;28;20220;-56
2022/10/14 08:11:14;;;;;;;62.83;43.43;;;13.80;99.90;;;;;;5008248;28;20223;-56
2022/10/14 08:13:43;;;;;;;63.30;44.43;;;13.80;99.90;;;;;;5013335;28;20232;-56
2022/10/14 08:16:15;;;;;;;64.73;43.03;;;13.80;99.90;;;;;;5018954;28;20241;-57
2022/10/14 08:18:44;;;;;;;68.63;43.83;;;13.80;99.90;;;;;;5012926;28;20236;-57
2022/10/14 08:21:12;;;;;;;60.93;41.70;;;13.80;99.90;;;;;;5005696;28;20244;-57
2022/10/14 08:23:40;;;;;;;62.27;42.20;;;13.80;99.90;;;;;;5013165;28;20225;-57
2022/10/14 08:26:19;;;;;;;62.37;41.60;;;13.90;99.90;;;;;;5016342;28;20266;-57
2022/10/14 08:28:48;;;;;;;64.67;43.10;;;14.00;99.90;;;;;;5018621;28;20233;-57
2022/10/14 08:31:16;;;;;;;59.77;39.47;;;14.00;99.90;;;;;;5012796;28;20745;-57
2022/10/14 08:33:45;;;;;;;53.60;36.13;;;14.00;99.90;;;;;;5013134;28;20233;-57
2022/10/14 08:36:13;;;;;;;59.33;41.83;;;14.10;99.90;;;;;;5013308;28;20255;-54
2022/10/14 08:38:41;;;;;;;61.67;41.43;;;14.00;99.90;;;;;;5020724;28;20271;-54
2022/10/14 08:41:24;;;;;;;56.57;39.47;;;13.90;99.90;;;;;;5013051;28;20692;-54
2022/10/14 08:44:02;;;;;;;58.13;38.50;;;13.90;99.90;;;;;;5013005;28;20591;-55
2022/10/14 08:46:36;;;;;;;56.40;38.13;;;13.90;99.90;;;;;;5012968;28;20236;-54
2022/10/14 08:49:11;;;;;;;56.40;37.97;;;14.00;99.90;;;;;;5012869;28;20239;-54
2022/10/14 08:51:44;;;;;;;64.07;41.93;;;14.10;99.90;;;;;;5012539;28;20239;-54
2022/10/14 08:54:20;;;;;;;66.30;41.73;;;14.20;99.90;;;;;;5005419;28;20236;-54
2022/10/14 08:56:49;;;;;;;60.33;37.10;;;14.30;99.90;;;;;;5012616;28;20607;-54
2022/10/14 08:59:20;;;;;;;61.80;39.00;;;14.30;99.90;;;;;;5021583;28;20735;-54
2022/10/14 09:01:52;;;;;;;62.40;39.97;;;14.40;99.90;;;;;;5014472;28;20317;-53
2022/10/14 09:04:21;;;;;;;54.90;36.63;;;14.40;99.90;;;;;;5010264;28;20238;-54
2022/10/14 09:06:50;;;;;;;62.13;38.30;;;14.40;99.90;;;;;;5018659;28;20273;-55
2022/10/14 09:09:23;;;;;;;59.40;39.23;;;14.30;99.90;;;;;;5012617;28;20736;-55
2022/10/14 09:11:56;;;;;;;54.10;36.23;;;14.30;99.90;;;;;;5018095;28;20230;-55
2022/10/14 09:14:27;;;;;;;55.27;36.90;;;14.30;99.90;;;;;;5011477;28;20228;-54
2022/10/14 09:17:00;;;;;;;55.10;35.23;;;14.30;99.90;;;;;;5011839;28;20236;-54
2022/10/14 09:19:32;;;;;;;52.63;34.70;;;14.40;99.90;;;;;;5011777;28;20224;-54
2022/10/14 09:22:01;;;;;;;51.57;36.30;;;14.50;99.90;;;;;;5012996;28;20269;-57
2022/10/14 09:24:34;;;;;;;49.33;35.63;;;14.60;99.90;;;;;;5015621;28;20671;-54
2022/10/14 09:27:07;;;;;;;52.03;37.13;;;14.70;99.90;;;;;;5011971;28;20217;-54
2022/10/14 09:29:41;;;;;;;53.03;36.53;;;14.90;99.90;;;;;;5016156;28;20700;-55
2022/10/14 09:32:13;;;;;;;47.93;33.87;;;14.90;99.90;;;;;;5011069;28;20731;-55
2022/10/14 09:34:45;;;;;;;43.63;30.67;;;15.00;99.90;;;;;;5013037;28;20270;-55
2022/10/14 09:37:24;;;;;;;52.17;35.53;;;15.10;99.90;;;;;;5004841;28;20804;-55
2022/10/14 09:39:56;;;;;;;46.37;32.27;;;15.10;99.90;;;;;;5013689;28;20251;-55
2022/10/14 09:42:32;;;;;;;48.23;33.83;;;15.00;99.90;;;;;;5016071;28;20221;-55
2022/10/14 09:45:10;;;;;;;47.77;33.63;;;15.10;99.90;;;;;;5015858;28;20604;-55
2022/10/14 09:47:52;;;;;;;45.77;32.87;;;15.10;99.90;;;;;;5015920;28;20232;-54
2022/10/14 09:50:24;;;;;;;41.73;30.20;;;15.10;99.90;;;;;;5016106;28;20225;-55
2022/10/14 09:52:56;;;;;;;43.37;30.50;;;15.10;99.90;;;;;;5015287;28;20224;-55
2022/10/14 09:55:24;;;;;;;44.43;31.10;;;15.20;99.90;;;;;;5014760;28;20218;-55
2022/10/14 09:58:18;;;;;;;49.20;31.93;;;15.10;99.90;;;;;;5015701;28;20627;-55
2022/10/14 10:00:47;;;;;;;46.90;32.43;;;14.90;99.90;;;;;;4997554;28;20260;-54
2022/10/14 10:03:26;;;;;;;46.70;34.13;;;14.90;99.90;;;;;;5014383;28;20217;-54
2022/10/14 10:06:01;;;;;;;45.37;31.80;;;14.80;99.90;;;;;;5013056;28;20233;-55
2022/10/14 10:08:29;;;;;;;46.90;31.87;;;14.90;99.90;;;;;;5014985;28;20587;-55
2022/10/14 10:11:01;;;;;;;45.43;31.80;;;14.80;99.90;;;;;;5015075;28;20613;-55
2022/10/14 10:13:46;;;;;;;45.23;32.03;;;14.90;99.90;;;;;;5010308;28;20275;-55
2022/10/14 10:16:23;;;;;;;42.13;29.87;;;14.80;99.90;;;;;;5014933;28;20237;-55
2022/10/14 10:18:54;;;;;;;43.20;31.30;;;14.80;99.90;;;;;;5013246;28;20220;-55
2022/10/14 10:21:25;;;;;;;44.53;30.83;;;14.80;99.90;;;;;;5008700;28;20229;-55
2022/10/14 10:23:56;;;;;;;41.47;29.87;;;14.80;99.90;;;;;;5019089;28;20255;-55
2022/10/14 10:26:27;;;;;;;43.60;31.47;;;14.90;99.90;;;;;;5021016;28;20620;-54
2022/10/14 10:28:57;;;;;;;41.50;29.20;;;14.90;99.90;;;;;;5014081;28;20225;-55
2022/10/14 10:31:43;;;;;;;41.07;28.07;;;14.90;99.90;;;;;;5014451;28;20229;-55
2022/10/14 10:34:46;;;;;;;42.03;29.90;;;14.90;99.90;;;;;;5020197;28;20572;-55
2022/10/14 10:37:25;;;;;;;40.30;29.00;;;14.80;99.90;;;;;;5002255;28;20224;-55
2022/10/14 10:40:19;;;;;;;42.03;30.33;;;14.70;99.90;;;;;;5016781;28;20232;-55
2022/10/14 10:42:58;;;;;;;39.23;28.07;;;14.60;99.90;;;;;;5017060;28;20255;-55
2022/10/14 10:45:39;;;;;;;39.23;28.27;;;14.60;99.90;;;;;;5019771;28;20229;-55
2022/10/14 10:48:17;;;;;;;39.07;28.37;;;14.70;99.90;;;;;;5014474;28;20224;-55
2022/10/14 10:50:57;;;;;;;36.30;26.97;;;14.70;99.90;;;;;;5019021;28;20278;-55
2022/10/14 10:53:54;;;;;;;36.23;26.43;;;14.80;99.90;;;;;;5019741;28;20255;-55
2022/10/14 10:56:33;;;;;;;38.03;26.47;;;14.80;99.90;;;;;;5014018;28;20249;-55
2022/10/14 10:59:34;;;;;;;34.13;24.67;;;14.90;99.90;;;;;;5014245;28;20269;-56
2022/10/14 11:02:26;;;;;;;38.90;27.07;;;14.90;99.90;;;;;;4998139;28;20246;-55
2022/10/14 11:05:09;;;;;;;37.87;26.80;;;14.90;99.90;;;;;;5014694;28;20241;-55
2022/10/14 11:13:41;;;;;;;33.20;24.73;;;14.80;99.90;;;;;;5016201;28;20561;-55
2022/10/14 11:16:15;;;;;;;35.17;25.07;;;14.80;99.90;;;;;;5014195;28;20241;-55
2022/10/14 11:18:50;;;;;;;35.17;25.27;;;14.80;99.90;;;;;;5016821;28;20225;-54
2022/10/14 11:21:29;;;;;;;35.73;26.80;;;14.90;99.90;;;;;;5015192;28;20217;-55
2022/10/14 11:24:07;;;;;;;35.40;25.67;;;14.80;99.90;;;;;;5019023;28;20617;-55
2022/10/14 11:26:58;;;;;;;36.93;26.73;;;14.90;99.90;;;;;;5019024;28;20228;-55
2022/10/14 11:29:41;;;;;;;32.97;25.20;;;14.80;99.90;;;;;;5014714;28;20255;-55
2022/10/14 11:32:19;;;;;;;33.67;25.17;;;15.00;99.90;;;;;;5016149;28;20704;-55
2022/10/14 11:34:59;;;;;;;34.37;25.30;;;15.10;99.90;;;;;;5016725;28;20235;-54
2022/10/14 11:37:42;;;;;;;36.33;25.70;;;15.20;99.90;;;;;;5015004;28;20232;-55
2022/10/14 11:40:20;;;;;;;34.43;25.37;;;15.30;99.90;;;;;;5016737;28;20692;-55
2022/10/14 11:43:01;;;;;;;34.30;25.00;;;15.40;99.90;;;;;;5017437;28;20692;-54
2022/10/14 11:45:49;;;;;;;33.83;25.70;;;15.60;99.90;;;;;;5014559;28;20577;-55
2022/10/14 11:48:32;;;;;;;32.77;24.73;;;15.70;99.90;;;;;;5011731;28;20235;-55
2022/10/14 11:51:13;;;;;;;37.77;25.33;;;15.80;99.90;;;;;;5013568;28;20684;-55
2022/10/14 11:54:02;;;;;;;31.77;22.87;;;15.70;99.90;;;;;;5013147;28;20296;-55
2022/10/14 11:56:42;;;;;;;31.03;23.63;;;15.70;99.90;;;;;;5011564;28;20229;-55
2022/10/14 11:59:35;;;;;;;33.00;25.13;;;15.70;99.90;;;;;;5013148;28;20604;-55
2022/10/14 12:02:17;;;;;;;31.07;23.73;;;15.80;99.90;;;;;;5012207;28;20720;-54
2022/10/14 12:04:53;;;;;;;30.97;24.27;;;15.90;99.90;;;;;;5012352;28;20232;-55
2022/10/14 12:07:27;;;;;;;31.27;24.57;;;15.80;99.90;;;;;;5013362;28;20226;-55
2022/10/14 12:10:00;;;;;;;31.53;24.73;;;15.60;99.90;;;;;;5011950;28;20221;-55
2022/10/14 12:12:30;;;;;;;30.40;23.60;;;15.80;99.90;;;;;;5016016;28;20222;-55
2022/10/14 12:15:02;;;;;;;28.43;22.47;;;16.10;99.90;;;;;;5014961;28;20237;-55
2022/10/14 12:17:35;;;;;;;30.90;23.73;;;16.30;99.90;;;;;;5018957;28;20216;-56
2022/10/14 12:20:19;;;;;;;27.00;22.97;;;16.40;99.90;;;;;;5021589;28;20729;-55
2022/10/14 12:22:51;;;;;;;30.80;22.33;;;16.40;99.90;;;;;;5021601;28;20233;-55
2022/10/14 12:25:23;;;;;;;29.13;22.97;;;16.20;99.90;;;;;;5033268;28;20696;-55
2022/10/14 12:27:53;;;;;;;26.17;21.83;;;16.20;99.90;;;;;;5024834;28;20229;-55
2022/10/14 12:30:32;;;;;;;28.03;22.93;;;16.20;99.90;;;;;;5032840;28;20228;-55
2022/10/14 12:33:05;;;;;;;29.47;23.50;;;16.00;99.90;;;;;;5033191;28;20263;-55
2022/10/14 12:35:58;;;;;;;29.47;22.00;;;15.90;99.90;;;;;;5032924;28;20243;-55
2022/10/14 12:38:28;;;;;;;27.57;21.80;;;15.70;99.90;;;;;;5019380;28;20635;-54
2022/10/14 12:41:33;;;;;;;28.60;21.67;;;15.70;99.90;;;;;;5014754;28;20221;-54
2022/10/14 12:44:03;;;;;;;25.77;21.50;;;15.70;99.90;;;;;;5013399;28;20217;-55
2022/10/14 12:46:32;;;;;;;25.90;20.97;;;15.60;99.90;;;;;;5012793;28;20236;-55
2022/10/14 12:49:00;;;;;;;25.73;21.33;;;15.50;99.90;;;;;;5012924;28;20273;-55
2022/10/14 12:51:28;;;;;;;26.43;22.03;;;15.50;99.90;;;;;;5012736;28;20241;-55
2022/10/14 12:54:14;;;;;;;25.63;20.53;;;15.60;99.90;;;;;;5013240;28;20328;-55
2022/10/14 12:56:56;;;;;;;25.87;20.73;;;15.60;99.90;;;;;;5019998;28;20236;-55
2022/10/14 12:59:30;;;;;;;23.53;19.20;;;15.70;99.90;;;;;;5012730;28;20700;-55
2022/10/14 13:02:03;;;;;;;26.77;21.03;;;15.80;99.90;;;;;;5012544;28;20241;-56
2022/10/14 13:04:32;;;;;;;23.37;19.73;;;15.70;99.90;;;;;;5015217;28;20216;-55
2022/10/14 13:07:29;;;;;;;26.13;20.67;;;15.70;99.90;;;;;;5015064;28;20248;-54
2022/10/14 13:10:43;;;;;;;21.17;17.93;;;15.80;99.90;;;;;;5017798;28;20255;-55